Time;durP1;ratioP1;P1;durP2;ratioP2;P2;SDS_P1;SDS_P2;PMS_P1;PMS_P2;Temp;Humidity;BMP_temperature;BMP_pressure;BME280_temperature;BME280_humidity;BME280_pressure;Samples;Min_cycle;Max_cycle;Signal;HPM_P1;HPM_P2
2023/05/01 00:00:13;;;;;;;13.17;7.83;;;;;;;11.56;78.24;94817.03;4993081;28;20179;-74
2023/05/01 00:02:38;;;;;;;11.67;6.60;;;;;;;11.44;78.47;94795.84;4993010;28;20173;-74
2023/05/01 00:05:05;;;;;;;13.27;6.03;;;;;;;11.45;78.53;94802.72;4993184;28;20324;-74
2023/05/01 00:07:30;;;;;;;10.53;7.57;;;;;;;11.56;78.36;94817.84;4993202;28;20287;-74
2023/05/01 00:09:56;;;;;;;11.00;8.03;;;;;;;11.54;78.49;94813.78;5011593;28;20678;-74
2023/05/01 00:12:22;;;;;;;11.18;8.65;;;;;;;11.45;79.26;94810.63;5010968;28;20465;-74
2023/05/01 00:14:48;;;;;;;12.33;6.27;;;;;;;11.47;78.85;94805.94;5012234;28;20642;-74
2023/05/01 00:17:13;;;;;;;12.97;8.40;;;;;;;11.37;79.67;94805.63;5011028;28;20710;-74
2023/05/01 00:19:38;;;;;;;9.80;7.93;;;;;;;11.40;79.13;94796.50;5012360;28;20658;-74
2023/05/01 00:22:04;;;;;;;11.37;7.97;;;;;;;11.49;79.07;94809.19;5012208;28;20180;-74
2023/05/01 00:24:29;;;;;;;11.00;7.90;;;;;;;11.45;79.19;94807.19;5012159;28;20180;-74
2023/05/01 00:26:55;;;;;;;12.37;8.43;;;;;;;11.35;79.37;94813.75;5011949;28;20343;-74
2023/05/01 00:29:20;;;;;;;10.77;6.27;;;;;;;11.33;79.45;94809.72;5012040;28;20688;-74
2023/05/01 00:31:46;;;;;;;10.47;7.43;;;;;;;11.21;80.32;94819.34;5010759;28;20436;-74
2023/05/01 00:34:11;;;;;;;9.27;7.30;;;;;;;11.25;79.92;94821.34;5011859;28;20227;-74
2023/05/01 00:36:37;;;;;;;8.67;7.03;;;;;;;11.25;80.01;94818.69;5012035;28;20548;-74
2023/05/01 00:39:03;;;;;;;10.50;6.57;;;;;;;11.30;80.00;94825.97;5003742;28;20173;-74
2023/05/01 00:41:28;;;;;;;10.07;7.00;;;;;;;11.28;79.41;94815.66;5011897;28;20176;-74
2023/05/01 00:43:53;;;;;;;9.27;5.80;;;;;;;11.30;79.42;94820.72;5011942;28;20180;-74
2023/05/01 00:46:20;;;;;;;10.57;6.33;;;;;;;11.30;79.81;94823.34;5011789;28;20176;-74
2023/05/01 00:48:45;;;;;;;7.60;6.07;;;;;;;11.31;79.39;94827.59;5011592;28;20199;-74
2023/05/01 00:51:11;;;;;;;9.30;6.53;;;;;;;11.17;79.35;94820.81;5011298;28;20176;-74
2023/05/01 00:53:39;;;;;;;6.87;5.40;;;;;;;11.22;79.81;94845.50;5011573;28;20185;-74
2023/05/01 00:56:05;;;;;;;9.80;5.63;;;;;;;11.22;80.00;94836.78;4997010;28;20268;-74
2023/05/01 00:58:31;;;;;;;7.97;5.93;;;;;;;11.03;80.07;94814.84;4992077;28;20169;-74
2023/05/01 01:00:57;;;;;;;9.30;6.93;;;;;;;11.10;80.46;94844.56;4991375;28;20423;-74
2023/05/01 01:03:22;;;;;;;10.83;6.17;;;;;;;11.09;80.29;94842.94;4991816;28;20169;-74
2023/05/01 01:05:58;;;;;;;7.43;6.10;;;;;;;10.91;80.52;94825.25;5003196;28;20172;-74
2023/05/01 01:08:39;;;;;;;9.37;6.43;;;;;;;10.98;80.86;94841.03;5011530;28;20214;-74
2023/05/01 01:11:35;;;;;;;10.20;6.77;;;;;;;10.94;81.20;94840.63;5011571;28;20176;-74
2023/05/01 01:14:23;;;;;;;9.57;6.90;;;;;;;10.92;81.47;94841.84;5011582;28;20176;-74
2023/05/01 01:17:28;;;;;;;8.20;6.53;;;;;;;10.88;81.50;94838.84;4993012;28;20239;-74
2023/05/01 01:20:12;;;;;;;8.65;5.57;;;;;;;10.66;82.33;94844.66;4976283;28;20434;-74
2023/05/01 01:22:42;;;;;;;8.43;5.60;;;;;;;10.58;82.87;94846.53;4999893;28;20181;-74
2023/05/01 01:25:53;;;;;;;8.03;5.93;;;;;;;10.54;83.03;94845.34;5003501;28;20180;-74
2023/05/01 01:28:36;;;;;;;9.17;6.10;;;;;;;10.54;83.17;94849.78;4980876;28;20185;-74
2023/05/01 01:31:21;;;;;;;8.37;5.90;;;;;;;10.40;83.25;94837.69;5010834;28;20235;-74
2023/05/01 01:33:56;;;;;;;6.83;5.80;;;;;;;10.52;83.50;94857.09;4987186;28;20188;-74
2023/05/01 01:36:37;;;;;;;7.47;5.47;;;;;;;10.28;83.89;94858.63;5010961;28;20175;-74
2023/05/01 01:39:23;;;;;;;11.15;6.85;;;;;;;10.23;85.29;94854.97;5009533;28;20425;-74
2023/05/01 01:41:51;;;;;;;9.03;6.10;;;;;;;10.32;84.56;94856.34;5003731;28;20184;-74
2023/05/01 01:44:36;;;;;;;10.73;6.17;;;;;;;10.36;84.28;94850.47;5007548;28;20745;-74
2023/05/01 01:47:05;;;;;;;10.80;6.97;;;;;;;10.38;83.54;94852.91;5010782;28;20180;-74
2023/05/01 01:49:33;;;;;;;13.73;9.90;;;;;;;10.39;83.50;94851.88;5010963;28;20267;-74
2023/05/01 01:52:02;;;;;;;13.37;9.60;;;;;;;10.28;83.98;94855.19;5010840;28;20186;-74
2023/05/01 01:54:36;;;;;;;14.53;9.53;;;;;;;10.25;84.40;94858.22;5008029;28;20626;-74
2023/05/01 01:57:03;;;;;;;12.30;9.17;;;;;;;10.28;84.80;94856.00;5005474;28;20254;-74
2023/05/01 01:59:33;;;;;;;11.87;9.23;;;;;;;10.29;84.28;94848.91;5010937;28;20184;-74
2023/05/01 02:02:01;;;;;;;12.67;9.60;;;;;;;10.27;84.27;94846.47;5013606;28;20187;-74
2023/05/01 02:04:27;;;;;;;21.20;10.73;;;;;;;10.27;84.35;94850.94;5014736;28;20657;-74
2023/05/01 02:06:55;;;;;;;20.73;13.85;;;;;;;10.20;84.71;94841.22;5013984;28;20422;-74
2023/05/01 02:09:22;;;;;;;19.57;11.87;;;;;;;10.21;84.67;94837.56;5014647;28;20271;-74
2023/05/01 02:11:49;;;;;;;15.60;9.40;;;;;;;10.15;84.85;94851.53;5014776;28;20180;-74
2023/05/01 02:14:17;;;;;;;15.80;10.80;;;;;;;10.13;84.72;94845.66;5014610;28;20263;-74
2023/05/01 02:16:43;;;;;;;18.20;11.20;;;;;;;10.09;84.61;94849.75;5014721;28;20184;-75
2023/05/01 02:19:09;;;;;;;19.87;11.00;;;;;;;10.07;84.64;94843.06;5014494;28;20176;-74
2023/05/01 02:21:36;;;;;;;17.23;9.67;;;;;;;10.05;84.55;94834.56;5014616;28;20263;-74
2023/05/01 02:24:03;;;;;;;21.60;11.13;;;;;;;10.01;84.66;94836.81;5014421;28;20370;-74
2023/05/01 02:26:30;;;;;;;19.13;10.97;;;;;;;9.82;84.67;94816.66;5003716;28;20204;-74
2023/05/01 02:28:57;;;;;;;15.43;9.90;;;;;;;9.92;84.53;94838.06;4994475;28;20205;-74
2023/05/01 02:31:22;;;;;;;21.10;10.20;;;;;;;9.87;85.44;94840.50;4994954;28;20196;-74
2023/05/01 02:33:48;;;;;;;16.17;10.63;;;;;;;9.87;86.10;94843.13;4995181;28;20189;-74
2023/05/01 02:36:13;;;;;;;22.37;11.60;;;;;;;9.88;86.33;94842.13;5002612;28;20195;-74
2023/05/01 02:38:39;;;;;;;16.63;10.33;;;;;;;9.94;86.43;94841.31;5010691;28;20619;-74
2023/05/01 02:41:07;;;;;;;15.40;10.47;;;;;;;9.86;85.85;94824.94;4994559;28;20181;-74
2023/05/01 02:43:34;;;;;;;16.90;11.10;;;;;;;9.95;85.65;94842.91;5012433;28;20187;-74
2023/05/01 02:46:01;;;;;;;20.80;11.83;;;;;;;9.95;85.15;94849.97;5014176;28;20708;-75
2023/05/01 02:48:28;;;;;;;19.97;10.70;;;;;;;9.93;85.01;94849.41;5014001;28;20685;-74
2023/05/01 02:50:55;;;;;;;15.40;9.97;;;;;;;9.81;85.36;94833.44;5013882;28;20186;-74
2023/05/01 02:53:21;;;;;;;20.70;11.20;;;;;;;9.94;85.07;94845.75;5014055;28;20176;-74
2023/05/01 02:55:48;;;;;;;17.70;11.10;;;;;;;9.91;85.09;94849.59;5013938;28;20716;-74
2023/05/01 02:58:18;;;;;;;17.60;11.67;;;;;;;9.91;85.05;94846.16;4996263;28;20856;-74
2023/05/01 03:00:44;;;;;;;18.50;10.57;;;;;;;9.86;85.03;94853.88;5013843;28;20180;-75
2023/05/01 03:03:10;;;;;;;21.93;12.63;;;;;;;9.68;84.95;94836.13;5013995;28;20226;-75
2023/05/01 03:05:37;;;;;;;16.37;11.23;;;;;;;9.83;84.99;94853.25;5013806;28;20180;-75
2023/05/01 03:08:03;;;;;;;16.83;10.43;;;;;;;9.73;85.28;94850.25;4994345;28;20549;-75
2023/05/01 03:10:28;;;;;;;18.07;11.20;;;;;;;9.73;85.28;94850.25;4994143;28;20200;-75
2023/05/01 03:12:53;;;;;;;18.83;12.23;;;;;;;9.69;85.44;94845.59;4993581;28;20193;-75
2023/05/01 03:15:19;;;;;;;17.23;11.73;;;;;;;9.66;85.71;94853.91;5006984;28;20254;-75
2023/05/01 03:17:44;;;;;;;24.47;12.77;;;;;;;9.64;85.81;94862.00;5013737;28;20187;-75
2023/05/01 03:20:10;;;;;;;19.47;10.50;;;;;;;9.64;86.37;94859.34;4994429;28;20243;-75
2023/05/01 03:22:36;;;;;;;17.40;10.27;;;;;;;9.69;86.77;94861.34;4993980;28;20208;-75
2023/05/01 03:25:03;;;;;;;12.27;7.50;;;;;;;9.75;86.71;94850.84;5003405;28;20657;-75
2023/05/01 03:27:29;;;;;;;19.47;9.17;;;;;;;9.64;86.76;94833.06;5009068;28;20273;-75
2023/05/01 03:29:55;;;;;;;19.93;9.63;;;;;;;9.66;86.72;94849.47;4993659;28;20240;-75
2023/05/01 03:32:21;;;;;;;17.77;9.67;;;;;;;9.73;85.67;94866.03;5000070;28;20603;-75
2023/05/01 03:34:46;;;;;;;10.57;7.13;;;;;;;9.73;86.53;94870.47;4999714;28;20584;-75
2023/05/01 03:37:12;;;;;;;15.70;7.10;;;;;;;9.70;86.61;94866.41;4999141;28;20192;-75
2023/05/01 03:39:37;;;;;;;14.37;8.53;;;;;;;9.71;86.49;94868.03;5001828;28;20252;-74
2023/05/01 03:42:03;;;;;;;23.33;9.97;;;;;;;9.73;86.53;94871.28;4995928;28;20969;-74
2023/05/01 03:44:29;;;;;;;11.67;7.93;;;;;;;9.73;86.31;94879.16;4994897;28;20286;-75
2023/05/01 03:46:54;;;;;;;13.37;8.70;;;;;;;9.55;86.54;94867.66;4996049;28;20176;-75
2023/05/01 03:49:20;;;;;;;13.60;7.70;;;;;;;9.41;86.02;94853.75;4996441;28;20266;-75
2023/05/01 03:51:45;;;;;;;16.10;9.20;;;;;;;9.60;86.34;94889.66;5000071;28;20207;-75
2023/05/01 03:54:11;;;;;;;14.40;8.73;;;;;;;9.66;86.73;94891.50;4993420;28;20181;-75
2023/05/01 03:56:37;;;;;;;12.80;7.70;;;;;;;9.77;86.62;94893.50;4993195;28;20268;-74
2023/05/01 03:59:02;;;;;;;13.00;7.83;;;;;;;9.90;85.82;94897.13;4993564;28;20602;-75
2023/05/01 04:01:28;;;;;;;13.80;7.80;;;;;;;9.99;85.01;94907.22;4993002;28;20259;-75
2023/05/01 04:03:54;;;;;;;16.17;7.67;;;;;;;10.04;84.82;94907.41;5000804;28;20196;-75
2023/05/01 04:06:19;;;;;;;13.93;8.83;;;;;;;10.16;84.73;94907.59;5007128;28;20188;-75
2023/05/01 04:08:45;;;;;;;16.27;9.60;;;;;;;10.34;84.80;94909.59;4993024;28;20201;-75
2023/05/01 04:11:10;;;;;;;14.93;10.23;;;;;;;10.57;84.00;94909.91;4993129;28;20714;-75
2023/05/01 04:13:36;;;;;;;19.17;11.27;;;;;;;10.76;82.64;94906.38;4992987;28;20586;-74
2023/05/01 04:16:01;;;;;;;16.13;10.37;;;;;;;10.93;81.29;94909.31;5011450;28;20184;-75
2023/05/01 04:18:27;;;;;;;15.47;10.17;;;;;;;11.11;80.61;94904.13;5012938;28;20850;-75
2023/05/01 04:20:52;;;;;;;12.53;8.90;;;;;;;11.25;80.18;94897.75;5012326;28;20203;-75
2023/05/01 04:23:19;;;;;;;12.43;8.60;;;;;;;11.65;80.21;94908.00;5012200;28;20177;-75
2023/05/01 04:25:45;;;;;;;12.87;8.27;;;;;;;12.02;78.71;94909.69;5011322;28;20326;-75
2023/05/01 04:28:11;;;;;;;9.77;7.07;;;;;;;12.37;77.40;94915.22;5012435;28;20188;-75
2023/05/01 04:30:37;;;;;;;9.03;6.90;;;;;;;12.73;76.07;94908.31;5012056;28;20220;-75
2023/05/01 04:33:05;;;;;;;12.67;8.13;;;;;;;13.25;74.47;94914.75;5003550;28;20567;-75
2023/05/01 04:35:30;;;;;;;12.57;7.67;;;;;;;13.79;73.13;94921.66;5012137;28;20180;-75
2023/05/01 04:37:56;;;;;;;11.97;7.47;;;;;;;14.30;71.29;94928.09;4998172;28;20268;-75
2023/05/01 04:40:21;;;;;;;11.67;8.40;;;;;;;14.82;69.63;94928.13;4992637;28;20176;-75
2023/05/01 04:42:47;;;;;;;14.27;8.43;;;;;;;15.30;67.25;94925.91;4992467;28;20185;-75
2023/05/01 04:45:12;;;;;;;11.83;7.50;;;;;;;15.82;64.90;94937.16;4992437;28;20181;-75
2023/05/01 04:47:37;;;;;;;11.53;7.10;;;;;;;16.31;63.45;94933.91;4992503;28;20200;-75
2023/05/01 04:50:03;;;;;;;13.77;7.47;;;;;;;16.85;61.47;94932.25;4992225;28;20224;-75
2023/05/01 04:52:28;;;;;;;15.18;7.00;;;;;;;17.45;59.75;94937.44;4992223;28;20613;-75
2023/05/01 04:54:54;;;;;;;9.20;6.70;;;;;;;17.94;57.88;94934.72;5005352;28;20180;-75
2023/05/01 04:57:19;;;;;;;12.30;6.90;;;;;;;18.54;55.89;94931.66;5012046;28;20254;-75
2023/05/01 04:59:45;;;;;;;8.07;5.75;;;;;;;19.13;54.12;94939.41;5011929;28;20199;-75
2023/05/01 05:02:10;;;;;;;9.30;6.40;;;;;;;19.84;51.97;94942.28;5003267;28;20172;-75
2023/05/01 05:04:36;;;;;;;7.90;5.80;;;;;;;20.49;51.23;94938.00;5008713;28;20200;-75
2023/05/01 05:07:01;;;;;;;8.82;5.97;;;;;;;21.33;48.78;94938.00;5011756;28;20173;-75
2023/05/01 05:09:26;;;;;;;11.75;7.10;;;;;;;22.09;46.20;94942.91;5011722;28;20234;-75
2023/05/01 05:11:52;;;;;;;12.95;7.28;;;;;;;22.72;44.58;94947.44;5011359;28;20191;-75
2023/05/01 05:14:17;;;;;;;9.32;5.63;;;;;;;23.26;42.81;94947.88;5011584;28;20173;-75
2023/05/01 05:16:43;;;;;;;7.22;5.25;;;;;;;23.76;42.37;94961.00;4993968;28;20566;-75
2023/05/01 05:19:08;;;;;;;11.20;6.28;;;;;;;24.20;41.35;94964.09;4991747;28;20200;-75
2023/05/01 05:21:34;;;;;;;8.20;4.97;;;;;;;24.64;39.93;94960.97;4991931;28;20614;-76
2023/05/01 05:23:59;;;;;;;5.80;5.20;;;;;;;24.98;39.94;94943.66;5002648;28;20258;-75
2023/05/01 05:26:25;;;;;;;8.05;4.13;;;;;;;25.46;38.26;94955.63;5011465;28;20184;-76
2023/05/01 05:28:51;;;;;;;5.60;4.15;;;;;;;26.10;37.36;94963.69;5011463;28;20192;-76
2023/05/01 05:31:16;;;;;;;8.88;4.32;;;;;;;26.49;35.83;94971.94;5003394;28;20250;-76
2023/05/01 05:33:41;;;;;;;5.28;4.57;;;;;;;26.56;35.03;94972.28;4996340;28;20856;-76
2023/05/01 05:36:07;;;;;;;6.05;4.38;;;;;;;26.87;35.50;94972.31;4991816;28;20251;-76
2023/05/01 05:38:32;;;;;;;11.95;6.40;;;;;;;27.11;34.59;94971.19;5005264;28;20180;-76
2023/05/01 05:40:58;;;;;;;10.20;5.88;;;;;;;27.09;33.63;94960.66;4994436;28;20316;-76
2023/05/01 05:43:23;;;;;;;11.25;5.10;;;;;;;27.31;33.79;94967.91;5003618;28;20180;-76
2023/05/01 05:45:49;;;;;;;5.28;4.70;;;;;;;27.61;34.48;94972.47;5011409;28;20211;-76
2023/05/01 05:48:14;;;;;;;9.35;4.85;;;;;;;27.92;32.45;94975.09;4993232;28;20260;-76
2023/05/01 05:50:40;;;;;;;6.90;5.20;;;;;;;28.03;32.20;94980.97;4991582;28;20279;-76
2023/05/01 05:53:05;;;;;;;9.55;5.50;;;;;;;28.11;33.47;94978.25;4999854;28;20728;-76
2023/05/01 05:55:30;;;;;;;9.13;5.43;;;;;;;28.03;32.92;94978.25;5003522;28;20605;-76
2023/05/01 05:57:56;;;;;;;9.10;5.40;;;;;;;27.98;33.31;94973.81;4991542;28;20252;-77
2023/05/01 06:00:22;;;;;;;5.72;5.13;;;;;;;27.89;32.92;94977.63;4991858;28;20169;-77
2023/05/01 06:02:47;;;;;;;7.63;4.95;;;;;;;27.54;33.51;94974.06;4991573;28;20195;-77
2023/05/01 06:05:12;;;;;;;11.50;6.32;;;;;;;27.68;34.66;94977.41;4992020;28;20213;-77
2023/05/01 06:07:38;;;;;;;9.85;5.35;;;;;;;27.24;34.52;94981.91;4991675;28;20215;-77
2023/05/01 06:10:04;;;;;;;13.75;6.20;;;;;;;26.93;34.23;94967.59;4991786;28;20201;-77
2023/05/01 06:12:30;;;;;;;8.23;5.78;;;;;;;26.94;34.88;94983.50;4992000;28;20180;-76
2023/05/01 06:14:56;;;;;;;8.93;5.50;;;;;;;26.74;35.13;94988.59;4991997;28;20199;-77
2023/05/01 06:17:23;;;;;;;7.10;5.65;;;;;;;26.28;34.93;94966.25;4991295;28;20176;-76
2023/05/01 06:19:51;;;;;;;6.28;5.68;;;;;;;25.76;35.63;94977.69;4991600;28;20521;-77
2023/05/01 06:22:17;;;;;;;8.75;5.63;;;;;;;25.41;37.32;94973.81;4997917;28;20179;-77
2023/05/01 06:24:43;;;;;;;8.10;5.82;;;;;;;25.40;38.32;94975.69;4993193;28;20184;-77
2023/05/01 06:27:08;;;;;;;8.80;6.45;;;;;;;25.39;37.83;94981.38;4996382;28;20248;-77
2023/05/01 06:29:34;;;;;;;17.15;6.68;;;;;;;25.11;38.86;94978.69;5004359;28;20758;-77
2023/05/01 06:31:59;;;;;;;10.05;5.72;;;;;;;25.01;40.38;94981.56;4991448;28;20208;-76
2023/05/01 06:34:25;;;;;;;6.85;5.95;;;;;;;24.93;38.65;94978.78;4994205;28;20230;-77
2023/05/01 06:36:50;;;;;;;7.97;6.38;;;;;;;24.67;39.91;94975.69;4991064;28;20192;-77
2023/05/01 06:39:15;;;;;;;8.55;6.45;;;;;;;24.75;41.38;94983.09;4991405;28;20248;-77
2023/05/01 06:41:41;;;;;;;6.85;5.28;;;;;;;24.71;39.90;94968.66;4991462;28;20183;-76
2023/05/01 06:44:06;;;;;;;7.80;4.97;;;;;;;24.73;40.58;94982.63;4991119;28;20173;-77
2023/05/01 06:46:31;;;;;;;9.20;5.68;;;;;;;24.59;39.67;94971.81;4991438;28;20717;-76
2023/05/01 06:48:57;;;;;;;9.32;6.03;;;;;;;24.74;40.90;94984.19;4993105;28;20200;-75
2023/05/01 06:51:22;;;;;;;7.68;5.85;;;;;;;24.58;39.94;94980.16;4994447;28;20173;-76
2023/05/01 06:53:48;;;;;;;5.65;5.03;;;;;;;24.37;41.89;94987.81;4993314;28;20189;-76
2023/05/01 06:56:13;;;;;;;6.15;5.15;;;;;;;24.33;40.13;94986.78;4992874;28;20184;-76
2023/05/01 06:58:38;;;;;;;10.93;6.07;;;;;;;24.43;41.41;94989.31;4992809;28;20169;-76
2023/05/01 07:01:04;;;;;;;6.43;5.47;;;;;;;24.42;41.31;94988.50;4993126;28;20570;-77
2023/05/01 07:03:29;;;;;;;9.10;5.78;;;;;;;24.37;40.98;94990.50;4993924;28;20181;-75
2023/05/01 07:05:55;;;;;;;12.50;6.78;;;;;;;24.32;41.27;94995.94;4998988;28;20257;-76
2023/05/01 07:08:21;;;;;;;5.00;4.43;;;;;;;24.47;43.78;94984.94;4996531;28;20192;-76
2023/05/01 07:10:48;;;;;;;6.93;4.68;;;;;;;24.56;41.43;94974.31;4992832;28;20180;-76
2023/05/01 07:13:13;;;;;;;8.45;5.20;;;;;;;24.90;40.16;94990.13;4994068;28;20161;-76
2023/05/01 07:15:39;;;;;;;5.47;4.97;;;;;;;24.87;40.20;94979.94;4992821;28;20228;-76
2023/05/01 07:18:04;;;;;;;10.98;5.38;;;;;;;24.54;39.40;94971.09;4993853;28;20627;-76
2023/05/01 07:20:31;;;;;;;6.00;5.13;;;;;;;24.65;40.27;94994.06;4994299;28;20255;-77
2023/05/01 07:22:56;;;;;;;5.57;4.40;;;;;;;24.48;41.04;94999.97;4992670;28;20237;-77
2023/05/01 07:25:22;;;;;;;8.32;5.57;;;;;;;24.49;38.75;94998.88;4995776;28;20670;-77
2023/05/01 07:27:47;;;;;;;7.93;4.88;;;;;;;24.26;38.75;94999.81;4995232;28;20185;-77
2023/05/01 07:30:13;;;;;;;8.10;5.78;;;;;;;23.97;39.42;94992.66;4994011;28;20252;-77
2023/05/01 07:32:38;;;;;;;5.65;5.00;;;;;;;23.46;40.28;94997.09;4994133;28;20578;-76
2023/05/01 07:35:04;;;;;;;5.45;4.30;;;;;;;23.59;41.09;94996.44;4993697;28;20435;-76
2023/05/01 07:37:30;;;;;;;6.22;3.97;;;;;;;23.74;40.79;94998.91;4993454;28;20624;-76
2023/05/01 07:39:57;;;;;;;9.15;7.05;;;;;;;24.18;42.02;94997.75;4996947;28;20176;-76
2023/05/01 07:42:22;;;;;;;5.22;4.72;;;;;;;24.51;41.46;94998.59;4976067;28;20195;-76
2023/05/01 07:44:50;;;;;;;8.38;5.15;;;;;;;24.50;39.89;94997.00;4995591;28;20173;-75
2023/05/01 07:47:15;;;;;;;9.02;6.65;;;;;;;23.95;39.60;94973.34;4994858;28;20176;-75
2023/05/01 07:49:41;;;;;;;6.47;4.57;;;;;;;24.01;41.64;94998.28;4993366;28;20197;-75
2023/05/01 07:52:06;;;;;;;9.10;3.63;;;;;;;24.29;42.00;94980.41;4992874;28;20169;-76
2023/05/01 07:54:32;;;;;;;11.18;5.10;;;;;;;24.44;38.95;94997.09;4994717;28;20187;-76
2023/05/01 07:56:58;;;;;;;6.13;4.47;;;;;;;24.35;39.18;94996.16;4994101;28;20169;-76
2023/05/01 07:59:23;;;;;;;5.97;4.53;;;;;;;24.39;39.98;94999.84;4992717;28;20674;-77
2023/05/01 08:01:49;;;;;;;8.00;4.93;;;;;;;24.47;39.44;94992.22;4992153;28;20177;-75
2023/05/01 08:04:15;;;;;;;7.00;4.63;;;;;;;24.49;39.05;95001.59;4992586;28;20186;-75
2023/05/01 08:06:41;;;;;;;8.45;5.10;;;;;;;24.68;40.27;94991.56;4992577;28;20584;-75
2023/05/01 08:09:07;;;;;;;6.03;4.82;;;;;;;25.07;40.18;94983.09;4992573;28;20268;-75
2023/05/01 08:11:32;;;;;;;8.02;4.47;;;;;;;25.16;39.29;94992.09;4993130;28;20185;-75
2023/05/01 08:13:58;;;;;;;4.35;3.92;;;;;;;25.41;40.46;94993.47;4974913;28;20192;-75
2023/05/01 08:16:23;;;;;;;3.67;3.38;;;;;;;25.51;37.59;94982.47;4992285;28;20181;-76
2023/05/01 08:18:49;;;;;;;5.90;3.75;;;;;;;25.22;36.10;94973.91;4991247;28;20624;-75
2023/05/01 08:21:14;;;;;;;5.60;3.90;;;;;;;25.28;36.44;94988.06;4991623;28;20185;-76
2023/05/01 08:23:40;;;;;;;6.32;5.07;;;;;;;25.20;36.13;94992.25;4991812;28;20181;-75
2023/05/01 08:26:05;;;;;;;9.88;3.83;;;;;;;25.22;36.51;94994.66;4999010;28;20199;-76
2023/05/01 08:28:33;;;;;;;4.70;4.20;;;;;;;24.66;36.86;94990.25;5008158;28;20626;-75
2023/05/01 08:30:58;;;;;;;4.72;3.88;;;;;;;24.17;37.38;94988.88;4995006;28;20217;-75
2023/05/01 08:33:24;;;;;;;4.60;3.58;;;;;;;24.18;38.25;94990.47;4991982;28;20244;-75
2023/05/01 08:35:50;;;;;;;5.07;3.55;;;;;;;24.48;37.98;94988.41;4992914;28;20177;-75
2023/05/01 08:38:15;;;;;;;5.15;3.70;;;;;;;24.60;38.06;94986.88;4991996;28;20569;-75
2023/05/01 08:40:46;;;;;;;4.90;3.88;;;;;;;24.60;36.19;94980.69;4992094;28;20643;-75
2023/05/01 08:43:12;;;;;;;4.82;3.35;;;;;;;24.17;37.32;94977.31;4992308;28;20257;-75
2023/05/01 08:45:38;;;;;;;3.90;2.85;;;;;;;24.22;36.76;94986.13;4992347;28;20217;-76
2023/05/01 08:48:09;;;;;;;5.97;3.53;;;;;;;23.86;37.61;94985.84;4997532;28;20650;-76
2023/05/01 08:50:38;;;;;;;2.75;2.47;;;;;;;23.56;36.37;94983.56;4993414;28;20735;-76
2023/05/01 08:53:05;;;;;;;2.63;2.42;;;;;;;23.35;35.63;94969.56;4996804;28;20185;-76
2023/05/01 08:55:32;;;;;;;6.47;3.47;;;;;;;23.29;36.99;94976.06;4996889;28;20243;-77
2023/05/01 08:57:58;;;;;;;5.03;3.15;;;;;;;22.99;37.69;94971.06;4992897;28;20261;-76
2023/05/01 09:00:24;;;;;;;4.28;3.30;;;;;;;22.64;39.45;94970.31;4991270;28;20177;-75
2023/05/01 09:02:50;;;;;;;4.07;3.17;;;;;;;22.21;39.61;94972.06;4994930;28;20169;-75
2023/05/01 09:05:18;;;;;;;5.72;2.70;;;;;;;22.66;39.55;94965.44;4989960;28;20588;-75
2023/05/01 09:07:47;;;;;;;5.13;3.65;;;;;;;22.96;40.03;94964.38;4990565;28;20185;-75
2023/05/01 09:10:15;;;;;;;5.32;3.65;;;;;;;23.17;38.76;94960.38;4989172;28;20185;-75
2023/05/01 09:12:43;;;;;;;3.42;2.60;;;;;;;23.20;40.16;94970.53;4990290;28;20177;-75
2023/05/01 09:15:10;;;;;;;6.07;3.78;;;;;;;23.33;38.41;94971.75;4990804;28;20169;-75
2023/05/01 09:17:36;;;;;;;3.92;2.65;;;;;;;23.15;37.82;94972.50;4990685;28;20181;-76
2023/05/01 09:20:06;;;;;;;6.50;3.70;;;;;;;22.87;38.14;94972.25;4988391;28;20187;-77
2023/05/01 09:22:32;;;;;;;5.47;2.17;;;;;;;22.56;38.66;94966.38;4991676;28;20307;-75
2023/05/01 09:24:58;;;;;;;5.75;2.53;;;;;;;22.19;38.92;94969.66;4989883;28;20177;-75
2023/05/01 09:27:25;;;;;;;4.63;2.60;;;;;;;22.22;39.04;94968.28;4990382;28;20236;-75
2023/05/01 09:29:51;;;;;;;2.35;1.83;;;;;;;21.70;38.96;94960.84;4990237;28;20221;-75
2023/05/01 09:32:19;;;;;;;5.22;2.40;;;;;;;21.84;39.67;94972.53;4990272;28;20180;-75
2023/05/01 09:34:45;;;;;;;6.70;2.35;;;;;;;21.56;40.78;94966.00;4990217;28;20185;-75
2023/05/01 09:37:23;;;;;;;4.45;2.60;;;;;;;21.61;40.01;94971.34;4990198;28;20643;-74
2023/05/01 09:39:48;;;;;;;4.43;2.85;;;;;;;21.68;39.97;94965.69;4990811;28;20268;-74
2023/05/01 09:42:23;;;;;;;3.65;2.42;;;;;;;21.33;41.26;94964.78;4991187;28;20702;-74
2023/05/01 09:44:48;;;;;;;4.32;2.30;;;;;;;21.46;43.17;94953.47;4990560;28;20168;-74
2023/05/01 09:47:21;;;;;;;3.22;2.53;;;;;;;21.88;40.91;94964.75;4991752;28;20181;-74
2023/05/01 09:49:48;;;;;;;3.55;2.78;;;;;;;21.68;42.38;94930.84;4992171;28;20256;-75
2023/05/01 09:52:14;;;;;;;3.22;2.53;;;;;;;21.89;43.00;94940.34;5005685;28;20615;-75
2023/05/01 09:54:40;;;;;;;4.28;2.40;;;;;;;22.25;41.46;94966.91;4990847;28;20620;-75
2023/05/01 09:57:05;;;;;;;4.53;2.60;;;;;;;21.86;41.15;94958.88;4990033;28;20192;-75
2023/05/01 09:59:33;;;;;;;2.33;2.13;;;;;;;21.90;41.71;94951.84;4992125;28;20157;-75
2023/05/01 10:01:59;;;;;;;3.20;2.90;;;;;;;21.79;41.80;94948.47;4990764;28;20317;-75
2023/05/01 10:04:34;;;;;;;2.95;2.35;;;;;;;21.71;41.42;94938.31;4990827;28;20264;-75
2023/05/01 10:07:13;;;;;;;2.60;2.40;;;;;;;21.43;41.46;94956.72;4989669;28;20172;-75
2023/05/01 10:09:40;;;;;;;3.75;2.40;;;;;;;21.50;42.93;94955.59;4990290;28;20197;-76
2023/05/01 10:12:05;;;;;;;5.20;2.67;;;;;;;21.61;41.64;94957.16;4990938;28;20281;-76
2023/05/01 10:14:32;;;;;;;3.40;2.50;;;;;;;21.39;41.22;94955.66;4990903;28;20225;-75
2023/05/01 10:16:58;;;;;;;3.40;2.05;;;;;;;21.28;40.87;94947.94;4992297;28;20662;-75
2023/05/01 10:19:24;;;;;;;4.18;2.05;;;;;;;21.14;39.87;94946.91;4990957;28;20169;-74
2023/05/01 10:21:49;;;;;;;2.45;1.92;;;;;;;20.85;41.20;94949.41;4989889;28;20309;-75
2023/05/01 10:24:15;;;;;;;9.27;3.75;;;;;;;20.63;42.64;94944.41;4992604;28;20173;-74
2023/05/01 10:26:42;;;;;;;3.35;2.42;;;;;;;20.79;43.33;94945.16;4995872;28;20234;-75
2023/05/01 10:29:08;;;;;;;2.50;2.30;;;;;;;20.66;41.35;94942.00;4993272;28;20283;-75
2023/05/01 10:31:34;;;;;;;2.15;1.95;;;;;;;20.44;41.55;94927.31;4994615;28;20257;-75
2023/05/01 10:34:01;;;;;;;3.60;2.08;;;;;;;20.54;41.58;94938.78;4994802;28;20988;-74
2023/05/01 10:36:38;;;;;;;4.38;3.30;;;;;;;20.74;43.56;94934.47;4976560;28;20173;-75
2023/05/01 10:39:03;;;;;;;2.47;2.28;;;;;;;21.06;44.64;94935.69;5000680;28;20172;-76
2023/05/01 10:41:56;;;;;;;2.45;2.10;;;;;;;21.24;44.75;94945.03;4994457;28;20204;-75
2023/05/01 10:44:24;;;;;;;5.07;3.38;;;;;;;21.50;43.57;94945.69;4993793;28;20555;-75
2023/05/01 10:46:49;;;;;;;3.08;2.00;;;;;;;21.54;43.73;94943.25;4994688;28;20173;-75
2023/05/01 10:49:16;;;;;;;3.53;2.30;;;;;;;21.40;42.48;94925.13;4994362;28;20215;-75
2023/05/01 10:51:59;;;;;;;2.90;2.08;;;;;;;21.47;43.59;94927.47;5005517;28;20264;-74
2023/05/01 10:54:31;;;;;;;3.47;1.98;;;;;;;21.54;42.55;94943.25;4992235;28;20540;-74
2023/05/01 10:57:01;;;;;;;2.50;1.77;;;;;;;21.36;40.53;94939.34;4993537;28;21581;-75
2023/05/01 10:59:46;;;;;;;3.15;1.70;;;;;;;21.00;40.34;94927.97;4991612;28;20185;-74
2023/05/01 11:02:21;;;;;;;3.13;2.35;;;;;;;20.81;41.23;94937.66;4994064;28;20177;-74
2023/05/01 11:04:49;;;;;;;3.58;1.70;;;;;;;20.78;41.90;94940.88;4992508;28;20180;-75
2023/05/01 11:07:17;;;;;;;3.00;1.90;;;;;;;20.99;40.83;94939.75;4993862;28;20733;-75
2023/05/01 11:10:00;;;;;;;4.63;2.30;;;;;;;21.17;41.84;94936.50;4994717;28;20197;-74
2023/05/01 11:12:44;;;;;;;4.35;2.58;;;;;;;21.28;40.67;94935.34;4993176;28;20550;-74
2023/05/01 11:15:10;;;;;;;3.60;1.50;;;;;;;21.27;40.64;94919.56;4993830;28;20658;-75
2023/05/01 11:17:38;;;;;;;2.72;1.90;;;;;;;21.37;40.68;94944.41;5005766;28;20177;-75
2023/05/01 11:20:04;;;;;;;2.22;1.98;;;;;;;21.44;39.66;94947.59;4994019;28;20543;-74
2023/05/01 11:22:31;;;;;;;2.90;1.70;;;;;;;21.33;39.77;94923.81;4993292;28;20239;-75
2023/05/01 11:24:57;;;;;;;1.60;1.50;;;;;;;21.40;40.61;94933.16;4993488;28;20196;-75
2023/05/01 11:27:22;;;;;;;4.28;1.60;;;;;;;21.69;42.11;94933.25;4993597;28;20689;-75
2023/05/01 11:29:49;;;;;;;4.07;2.30;;;;;;;21.63;39.56;94933.53;4992551;28;20189;-75